Time;durP1;ratioP1;P1;durP2;ratioP2;P2;SDS_P1;SDS_P2;PMS_P1;PMS_P2;Temp;Humidity;BMP_temperature;BMP_pressure;BME280_temperature;BME280_humidity;BME280_pressure;Samples;Min_cycle;Max_cycle;Signal;HPM_P1;HPM_P2
2022/11/28 06:25:53;;;;;;;19.25;17.85;;;;;;;11.87;72.21;102258.59;4997706;28;102503;-54
2022/11/28 06:28:20;;;;;;;15.10;13.95;;;;;;;11.89;71.97;102262.72;4992846;28;102473;-54
2022/11/28 06:30:47;;;;;;;14.48;13.18;;;;;;;11.91;72.14;102266.06;4962139;28;104044;-54
2022/11/28 06:33:13;;;;;;;15.15;13.85;;;;;;;11.91;72.03;102259.78;4969942;28;102177;-54
2022/11/28 06:35:40;;;;;;;14.98;13.68;;;;;;;11.91;72.06;102262.50;4971348;28;102191;-54
2022/11/28 06:38:06;;;;;;;17.25;15.75;;;;;;;11.91;72.21;102265.22;4973039;28;102207;-54
2022/11/28 06:40:33;;;;;;;17.20;15.60;;;;;;;11.91;72.33;102260.59;4967708;28;103933;-54
2022/11/28 06:43:01;;;;;;;17.10;15.57;;;;;;;11.93;71.86;102257.59;4970171;28;102129;-54
2022/11/28 06:45:27;;;;;;;16.13;14.85;;;;;;;11.92;71.86;102262.25;4970334;28;103029;-54
2022/11/28 06:47:54;;;;;;;18.95;17.38;;;;;;;11.91;72.04;102251.59;4973580;28;102173;-54
2022/11/28 06:50:20;;;;;;;20.02;18.45;;;;;;;11.92;72.10;102255.97;4968760;28;103888;-54
2022/11/28 06:52:47;;;;;;;19.67;18.08;;;;;;;11.93;71.90;102257.59;4965601;28;102240;-54
2022/11/28 06:55:13;;;;;;;21.02;19.42;;;;;;;11.92;72.10;102267.69;4970716;28;102034;-54
2022/11/28 06:57:41;;;;;;;23.10;21.27;;;;;;;11.91;71.85;102266.06;4972867;28;102119;-54
2022/11/28 07:00:10;;;;;;;21.48;19.80;;;;;;;11.91;71.76;102265.22;4969488;28;103835;-54
2022/11/28 07:02:37;;;;;;;22.42;20.75;;;;;;;11.92;71.72;102262.25;4967136;28;102395;-54
2022/11/28 07:05:04;;;;;;;21.73;20.13;;;;;;;11.92;71.97;102269.59;4990756;28;102641;-54
2022/11/28 07:07:31;;;;;;;23.63;21.92;;;;;;;11.92;71.67;102255.97;4974219;28;102411;-54
2022/11/28 07:09:57;;;;;;;25.42;23.42;;;;;;;11.92;71.80;102264.16;4970650;28;104115;-54
2022/11/28 07:12:23;;;;;;;24.95;23.23;;;;;;;11.91;71.64;102259.78;4972088;28;102472;-54
2022/11/28 07:14:50;;;;;;;23.30;21.67;;;;;;;11.92;71.83;102264.16;4969781;28;102305;-54
2022/11/28 07:17:18;;;;;;;26.50;24.60;;;;;;;11.92;71.57;102250.50;4973583;28;102646;-54
2022/11/28 07:19:44;;;;;;;25.45;23.58;;;;;;;11.91;72.01;102255.13;4983124;28;103888;-54
2022/11/28 07:22:11;;;;;;;25.42;23.52;;;;;;;11.91;71.63;102249.69;4963686;28;102063;-54
2022/11/28 07:24:37;;;;;;;27.20;25.17;;;;;;;11.93;71.55;102247.53;4969622;28;102002;-54
2022/11/28 07:27:04;;;;;;;28.55;26.48;;;;;;;11.94;72.12;102254.66;4958621;28;102103;-54
2022/11/28 07:29:35;;;;;;;28.17;26.20;;;;;;;11.93;71.65;102252.16;4956951;28;103934;-54
2022/11/28 07:32:02;;;;;;;30.73;28.58;;;;;;;11.95;71.71;102247.28;4956788;28;102512;-54
2022/11/28 07:34:30;;;;;;;30.55;28.25;;;;;;;11.95;71.80;102247.28;4955983;28;102086;-54
2022/11/28 07:36:56;;;;;;;30.65;28.50;;;;;;;11.92;71.80;102243.16;4957500;28;103229;-54
2022/11/28 07:39:23;;;;;;;33.70;31.20;;;;;;;11.93;71.68;102241.25;4956525;28;104065;-54
2022/11/28 07:41:50;;;;;;;30.75;28.63;;;;;;;11.92;71.80;102245.06;4954362;28;102080;-54
2022/11/28 07:44:16;;;;;;;29.75;27.60;;;;;;;11.94;71.74;102242.91;4955542;28;102060;-54
2022/11/28 07:46:44;;;;;;;32.53;30.35;;;;;;;11.94;71.35;102234.72;4958764;28;102549;-54
2022/11/28 07:49:11;;;;;;;35.08;32.80;;;;;;;11.93;71.69;102235.78;4956326;28;103915;-54
2022/11/28 07:51:40;;;;;;;35.95;33.33;;;;;;;11.93;71.58;102235.78;4957204;28;102352;-54
2022/11/28 07:54:07;;;;;;;35.35;32.92;;;;;;;11.93;71.44;102246.69;4958437;28;102120;-54
2022/11/28 07:56:35;;;;;;;33.97;31.73;;;;;;;11.92;71.34;102239.59;4958907;28;102170;-54
2022/11/28 07:59:03;;;;;;;32.17;29.90;;;;;;;11.92;71.44;102242.31;4956879;28;103850;-54
2022/11/28 08:01:32;;;;;;;34.78;32.35;;;;;;;11.91;71.40;102241.50;4957317;28;102142;-54
2022/11/28 08:03:58;;;;;;;34.20;31.83;;;;;;;11.92;71.56;102245.06;4957905;28;102121;-54
2022/11/28 08:06:28;;;;;;;35.53;33.10;;;;;;;11.91;71.55;102243.41;4956856;28;102150;-54
2022/11/28 08:08:59;;;;;;;33.63;31.35;;;;;;;11.91;71.50;102237.94;4952685;28;104074;-54
2022/11/28 08:11:28;;;;;;;32.80;30.55;;;;;;;11.92;71.24;102245.06;4955527;28;102331;-54
2022/11/28 08:13:57;;;;;;;29.52;27.30;;;;;;;11.92;71.37;102250.50;4956340;28;102089;-54
2022/11/28 08:16:26;;;;;;;27.52;25.40;;;;;;;11.92;71.46;102239.59;4955593;28;102231;-54
2022/11/28 08:18:56;;;;;;;;;;;;;;;11.94;71.41;102242.91;4954731;28;104187;-54
2022/11/28 08:21:24;;;;;;;21.38;19.67;;;;;;;11.91;71.77;102240.66;4975820;28;102209;-54
2022/11/28 08:23:52;;;;;;;27.95;25.77;;;;;;;11.92;71.54;102245.06;4956861;28;102728;-54
2022/11/28 08:26:22;;;;;;;28.13;26.05;;;;;;;11.92;71.63;102245.06;4951429;28;102537;-54
2022/11/28 08:28:50;;;;;;;24.67;22.88;;;;;;;11.90;71.57;102248.03;4956214;28;104020;-54
2022/11/28 08:31:18;;;;;;;27.67;25.65;;;;;;;11.91;71.53;102237.94;4948620;28;102161;-54
2022/11/28 08:33:47;;;;;;;28.67;26.60;;;;;;;11.91;71.63;102248.84;4952888;28;102643;-54
2022/11/28 08:36:15;;;;;;;27.35;25.30;;;;;;;11.90;71.70;102247.19;4954442;28;102194;-55
2022/11/28 08:38:45;;;;;;;31.00;28.67;;;;;;;11.93;71.63;102252.16;4948459;28;107841;-55
2022/11/28 08:41:14;;;;;;;29.35;27.20;;;;;;;11.90;71.81;102241.72;4953467;28;102422;-55
2022/11/28 08:43:42;;;;;;;28.70;26.55;;;;;;;11.91;71.55;102240.66;4955078;28;102026;-54
2022/11/28 08:46:10;;;;;;;28.50;26.27;;;;;;;11.91;71.83;102235.22;4950126;28;102225;-54
2022/11/28 08:48:38;;;;;;;29.80;27.50;;;;;;;11.90;71.83;102222.63;4952870;28;103964;-54
2022/11/28 08:51:06;;;;;;;29.80;27.67;;;;;;;11.89;71.74;102229.16;4952664;28;102526;-54
2022/11/28 08:53:33;;;;;;;29.63;27.52;;;;;;;11.89;71.74;102223.72;4956685;28;102136;-54
2022/11/28 08:56:00;;;;;;;30.45;28.33;;;;;;;11.89;71.64;102220.97;4953081;28;102194;-54
2022/11/28 08:58:26;;;;;;;31.42;29.17;;;;;;;11.90;71.70;102225.34;4951150;28;104216;-54
2022/11/28 09:00:54;;;;;;;31.30;29.10;;;;;;;11.90;71.68;102219.91;4956033;28;104856;-54
2022/11/28 09:03:21;;;;;;;31.48;29.23;;;;;;;11.89;71.75;102210.06;4953272;28;102248;-54
2022/11/28 09:05:48;;;;;;;29.38;27.17;;;;;;;11.90;71.68;102208.97;4950774;28;102535;-54
2022/11/28 09:08:16;;;;;;;34.40;31.90;;;;;;;11.89;71.88;102207.34;4952691;28;104275;-54
2022/11/28 09:10:44;;;;;;;29.27;27.25;;;;;;;11.90;71.42;102208.97;4952180;28;101980;-54
2022/11/28 09:13:11;;;;;;;29.52;27.27;;;;;;;11.90;71.75;102200.81;4955103;28;102691;-54
2022/11/28 09:15:38;;;;;;;29.35;27.27;;;;;;;11.90;71.78;102198.94;4955619;28;102336;-55
2022/11/28 09:18:07;;;;;;;28.75;26.73;;;;;;;11.91;71.83;102197.03;4947051;28;104020;-54
2022/11/28 09:20:34;;;;;;;32.53;30.13;;;;;;;11.91;71.63;102188.84;4940340;28;102218;-54
2022/11/28 09:23:00;;;;;;;33.97;31.60;;;;;;;11.91;71.40;102194.28;4948549;28;102632;-54
2022/11/28 09:25:27;;;;;;;30.40;28.08;;;;;;;11.90;71.45;102192.63;4956873;28;102165;-54
2022/11/28 09:27:53;;;;;;;35.05;32.35;;;;;;;11.90;71.92;102192.63;4954415;28;103980;-54
2022/11/28 09:30:24;;;;;;;31.65;29.27;;;;;;;11.90;71.81;102174.38;4955770;28;102151;-54
2022/11/28 09:32:51;;;;;;;32.78;30.42;;;;;;;11.91;71.68;102177.94;4947826;28;102200;-54
2022/11/28 09:35:19;;;;;;;31.80;29.55;;;;;;;11.91;71.73;102180.66;4948614;28;104764;-54
2022/11/28 09:37:45;;;;;;;30.13;27.98;;;;;;;11.90;71.67;102176.25;4953716;28;104269;-54
2022/11/28 09:40:16;;;;;;;33.38;30.98;;;;;;;11.91;72.00;102167.00;4956107;28;102321;-54
2022/11/28 09:42:44;;;;;;;32.47;30.15;;;;;;;11.92;71.51;102168.66;4955189;28;101964;-54
2022/11/28 09:45:15;;;;;;;28.58;26.45;;;;;;;11.90;71.68;102165.34;4956063;28;102278;-54
2022/11/28 09:47:44;;;;;;;31.08;28.88;;;;;;;11.91;71.89;102150.66;4955552;28;103985;-54
2022/11/28 09:50:15;;;;;;;30.13;27.92;;;;;;;11.90;71.58;102149.81;4955994;28;102444;-54
2022/11/28 09:52:53;;;;;;;29.83;27.60;;;;;;;11.91;71.90;102156.09;4956068;28;101985;-54
2022/11/28 09:55:28;;;;;;;32.72;30.33;;;;;;;11.90;71.71;102147.09;4956152;28;102558;-54
2022/11/28 09:57:55;;;;;;;30.63;28.27;;;;;;;11.91;71.63;102148.75;4954381;28;103872;-54
2022/11/28 11:27:18;;;;;;;31.58;29.08;;;;;;;11.75;71.71;102087.59;4991539;28;102675;-56
2022/11/28 11:29:46;;;;;;;21.60;19.83;;;;;;;11.77;71.54;102096.34;4989300;28;102081;-56
2022/11/28 11:32:20;;;;;;;21.33;19.50;;;;;;;11.78;71.51;102087.09;4956249;28;104085;-56
2022/11/28 11:34:49;;;;;;;20.92;18.92;;;;;;;11.79;71.51;102083.31;4957424;28;102204;-56
2022/11/28 11:37:19;;;;;;;21.83;19.92;;;;;;;11.79;71.38;102082.47;4959906;28;101995;-56
2022/11/28 11:39:48;;;;;;;20.70;18.88;;;;;;;11.79;71.42;102083.31;4958928;28;102125;-56
2022/11/28 11:42:20;;;;;;;20.65;18.85;;;;;;;11.81;71.39;102084.97;4961898;28;104495;-56
2022/11/28 11:44:47;;;;;;;20.17;18.33;;;;;;;11.81;71.60;102082.22;4955963;28;102314;-56
2022/11/28 11:47:13;;;;;;;20.55;18.83;;;;;;;11.77;71.59;102085.44;4959875;28;102724;-56
2022/11/28 11:49:42;;;;;;;20.05;18.35;;;;;;;11.79;71.01;102072.41;4964293;28;102411;-56
2022/11/28 11:52:17;;;;;;;22.15;20.27;;;;;;;11.79;71.68;102077.84;4954355;28;103793;-56
2022/11/28 11:55:01;;;;;;;20.58;18.77;;;;;;;11.78;71.28;102067.19;4954733;28;102567;-56
2022/11/28 11:57:35;;;;;;;21.60;19.85;;;;;;;11.76;71.37;102072.06;4956726;28;102162;-56
2022/11/28 12:00:09;;;;;;;20.77;18.92;;;;;;;11.67;71.61;102073.53;4962231;28;102295;-56
2022/11/28 12:02:40;;;;;;;31.48;23.40;;;;;;;11.60;71.30;102068.22;4963226;28;104119;-56
2022/11/28 12:05:17;;;;;;;27.97;21.20;;;;;;;11.63;71.00;102067.75;4960024;28;102692;-56
2022/11/28 12:07:53;;;;;;;46.25;25.30;;;;;;;11.63;70.04;102069.66;4959054;28;102297;-55
2022/11/28 12:10:42;;;;;;;34.20;23.23;;;;;;;11.65;70.87;102071.06;4956327;28;102363;-56
2022/11/28 12:13:18;;;;;;;37.25;28.08;;;;;;;11.68;70.99;102067.00;4962901;28;103855;-55
2022/11/28 12:15:56;;;;;;;39.55;26.42;;;;;;;11.70;70.65;102057.50;4958828;28;104736;-55
2022/11/28 12:18:32;;;;;;;31.92;28.48;;;;;;;11.73;70.82;102062.47;4959545;28;102354;-56
2022/11/28 12:21:10;;;;;;;32.05;28.75;;;;;;;11.74;70.66;102045.03;4952112;28;102609;-56
2022/11/28 12:23:57;;;;;;;33.92;27.65;;;;;;;11.74;70.92;102042.31;4965450;28;104328;-56
2022/11/28 12:26:32;;;;;;;34.67;27.77;;;;;;;11.74;70.78;102042.31;4961144;28;102372;-55
2022/11/28 12:29:13;;;;;;;31.98;28.60;;;;;;;11.74;70.74;102042.31;4951196;28;105206;-56
2022/11/28 12:31:50;;;;;;;33.58;30.08;;;;;;;11.74;70.83;102042.31;4943628;28;102923;-55
2022/11/28 12:34:25;;;;;;;31.60;28.50;;;;;;;11.76;70.97;102053.81;4952721;28;104041;-55
2022/11/28 12:36:58;;;;;;;30.67;27.88;;;;;;;11.77;71.09;102051.91;4943835;28;102319;-56
2022/11/28 12:39:37;;;;;;;31.63;28.38;;;;;;;11.76;70.76;102051.06;4951229;28;102194;-55
2022/11/28 12:55:47;;;;;;;105.90;99.22;;;;;;;11.75;70.81;102046.66;5032708;27;102834;-56
2022/11/28 12:58:22;;;;;;;69.57;64.80;;;;;;;11.75;70.93;102048.56;5032150;27;102968;-55
2022/11/28 13:00:54;;;;;;;65.60;60.72;;;;;;;11.76;70.90;102056.53;5032564;27;104143;-55
2022/11/28 13:03:33;;;;;;;58.10;53.85;;;;;;;11.76;70.95;102055.72;5036519;27;102674;-55
2022/11/28 13:06:16;;;;;;;53.15;49.10;;;;;;;11.76;71.14;102053.81;5032200;27;101983;-56
2022/11/28 13:09:00;;;;;;;52.40;48.55;;;;;;;11.77;71.03;102052.72;5035966;27;102127;-55
2022/11/28 13:11:43;;;;;;;46.33;42.88;;;;;;;11.77;71.05;102058.19;5034393;27;103909;-55
2022/11/28 13:14:22;;;;;;;46.13;42.45;;;;;;;11.79;70.83;102056.03;5031105;27;102766;-55
2022/11/28 13:16:50;;;;;;;46.90;43.38;;;;;;;11.82;70.84;102056.59;5027498;27;102709;-55
2022/11/28 13:19:28;;;;;;;44.47;41.13;;;;;;;11.80;71.15;102062.31;5030200;27;103049;-55
2022/11/28 13:22:04;;;;;;;44.45;41.10;;;;;;;11.82;71.00;102065.59;5029691;27;103864;-56
2022/11/28 13:24:39;;;;;;;42.88;39.63;;;;;;;11.81;70.92;102069.41;5031887;27;102033;-55
2022/11/28 13:27:15;;;;;;;41.42;38.25;;;;;;;11.83;71.29;102070.00;5033700;27;102545;-55
2022/11/28 13:29:50;;;;;;;43.47;40.15;;;;;;;11.82;71.10;102070.25;5011756;27;102799;-55
2022/11/28 13:32:24;;;;;;;38.92;35.97;;;;;;;11.82;71.11;102064.78;5009256;27;104050;-55
2022/11/28 13:34:50;;;;;;;41.40;38.42;;;;;;;11.81;71.17;102063.97;5008266;28;102614;-55
2022/11/28 13:37:26;;;;;;;38.60;35.65;;;;;;;11.83;71.13;102066.44;5008793;27;102920;-56
2022/11/28 13:40:00;;;;;;;40.92;37.65;;;;;;;11.83;70.99;102056.38;5009635;28;103461;-56
2022/11/28 13:42:34;;;;;;;41.15;37.92;;;;;;;11.82;71.03;102054.69;5009102;27;103931;-55
2022/11/28 13:45:06;;;;;;;41.75;38.70;;;;;;;11.83;71.17;102060.97;5005987;28;103014;-55
2022/11/28 13:47:34;;;;;;;37.00;34.13;;;;;;;11.84;71.00;102062.69;5008251;27;102605;-55
2022/11/28 13:50:35;;;;;;;41.30;38.22;;;;;;;11.83;71.15;102067.28;5009550;27;102539;-55
2022/11/28 13:53:18;;;;;;;35.50;32.83;;;;;;;11.84;70.81;102060.78;5007892;27;104022;-55
2022/11/28 13:55:46;;;;;;;33.40;30.85;;;;;;;11.84;70.97;102073.59;4999101;28;102981;-55
2022/11/28 13:58:21;;;;;;;37.25;34.42;;;;;;;11.83;71.15;102067.28;4993852;27;102576;-55
2022/11/28 14:01:10;;;;;;;37.50;34.50;;;;;;;11.84;70.98;102073.59;4997092;27;102692;-55
2022/11/28 14:03:45;;;;;;;34.50;32.08;;;;;;;11.83;71.06;102067.28;4992711;27;103931;-55
2022/11/28 14:06:16;;;;;;;32.97;30.42;;;;;;;11.85;71.44;102069.78;4996671;28;102225;-55
2022/11/28 14:08:44;;;;;;;34.05;31.40;;;;;;;11.84;71.15;102073.59;4993776;28;102376;-55
2022/11/28 14:11:39;;;;;;;39.67;36.88;;;;;;;11.84;71.40;102079.88;4994836;28;102558;-55
2022/11/28 14:14:20;;;;;;;34.63;31.92;;;;;;;11.84;71.14;102079.88;4993988;28;104365;-55
2022/11/28 14:17:01;;;;;;;34.90;32.42;;;;;;;11.85;71.48;102086.16;4994899;28;103053;-55
2022/11/28 14:19:44;;;;;;;32.90;30.42;;;;;;;11.87;71.08;102084.00;4994952;27;102603;-55
2022/11/28 14:22:26;;;;;;;33.20;30.75;;;;;;;11.87;70.86;102086.75;4997265;28;102680;-55
2022/11/28 14:25:00;;;;;;;34.40;31.85;;;;;;;11.86;71.42;102099.53;4993687;28;103799;-55
2022/11/28 14:27:31;;;;;;;34.45;31.80;;;;;;;11.86;71.17;102094.06;4997588;28;102762;-55
2022/11/28 14:30:00;;;;;;;38.60;35.97;;;;;;;11.86;71.21;102098.72;4993220;28;102615;-56
2022/11/28 14:32:32;;;;;;;36.33;33.50;;;;;;;11.86;71.31;102093.25;4996684;28;102699;-55
2022/11/28 14:35:00;;;;;;;37.45;34.83;;;;;;;11.86;71.28;102090.53;4992612;28;104127;-55
2022/11/28 14:37:49;;;;;;;35.08;32.70;;;;;;;11.84;71.53;102085.31;4992426;28;102768;-55
2022/11/28 14:41:05;;;;;;;34.47;31.73;;;;;;;11.86;71.37;102079.59;5001540;28;102428;-55
2022/11/28 14:43:36;;;;;;;29.58;27.33;;;;;;;11.83;71.15;102083.66;4999777;28;102692;-55
2022/11/28 14:46:31;;;;;;;33.22;30.95;;;;;;;11.82;71.35;102071.06;5007435;28;104042;-55
2022/11/28 14:49:21;;;;;;;34.40;31.98;;;;;;;11.82;71.07;102075.69;5003036;28;102145;-55
2022/11/28 14:52:19;;;;;;;32.50;30.10;;;;;;;11.83;71.34;102077.34;5007221;28;102851;-55
2022/11/28 14:54:48;;;;;;;29.38;27.23;;;;;;;11.83;71.16;102077.34;4972234;28;102401;-56
2022/11/28 14:57:18;;;;;;;32.25;29.85;;;;;;;11.82;71.27;102081.16;4999064;28;104060;-55
2022/11/28 14:59:45;;;;;;;34.78;32.33;;;;;;;11.84;71.50;102079.88;4998651;28;102383;-55
2022/11/28 15:02:43;;;;;;;34.47;32.00;;;;;;;11.84;71.28;102082.59;5009563;28;102384;-58
2022/11/28 15:05:36;;;;;;;32.75;30.27;;;;;;;11.82;71.24;102067.50;5006172;28;102295;-56
2022/11/28 15:08:36;;;;;;;32.25;29.85;;;;;;;11.83;71.43;102071.88;5008979;28;104493;-55
2022/11/28 15:11:28;;;;;;;30.90;28.70;;;;;;;11.83;71.34;102071.88;4988404;28;102072;-55
2022/11/28 15:14:07;;;;;;;32.72;30.35;;;;;;;11.85;71.08;102064.31;5008151;27;102727;-55
2022/11/28 15:16:38;;;;;;;34.67;32.17;;;;;;;11.83;71.11;102060.97;5007567;28;102200;-55
2022/11/28 15:19:13;;;;;;;35.45;32.88;;;;;;;11.84;71.32;102068.13;5004892;28;103977;-56
2022/11/28 15:21:44;;;;;;;33.67;31.08;;;;;;;11.84;71.30;102063.50;5010691;28;104727;-55
2022/11/28 15:24:25;;;;;;;32.88;30.48;;;;;;;11.83;71.37;102067.28;4996869;28;102997;-55
2022/11/28 15:26:52;;;;;;;33.80;31.33;;;;;;;11.85;71.15;102069.78;5006679;28;101999;-55
2022/11/28 15:29:21;;;;;;;33.55;31.00;;;;;;;11.85;71.19;102078.78;5010948;28;103975;-55
2022/11/28 15:31:50;;;;;;;38.55;35.65;;;;;;;11.84;71.10;102073.59;5006904;27;102749;-55
2022/11/28 15:34:24;;;;;;;36.60;33.90;;;;;;;11.84;71.16;102079.88;5003391;27;102444;-55
2022/11/28 15:36:52;;;;;;;35.22;32.63;;;;;;;11.85;71.23;102077.97;5004270;28;102354;-55
2022/11/28 15:39:25;;;;;;;33.50;31.10;;;;;;;11.86;71.32;102087.78;4999035;28;103940;-55
2022/11/28 15:41:51;;;;;;;36.33;33.83;;;;;;;11.84;71.74;102089.97;5006679;28;102390;-55
2022/11/28 15:44:18;;;;;;;37.00;34.40;;;;;;;11.86;71.39;102082.34;4994559;28;102412;-55
2022/11/28 15:46:44;;;;;;;37.75;34.97;;;;;;;11.86;71.49;102083.16;5010294;27;102153;-55
2022/11/28 15:49:28;;;;;;;39.28;36.58;;;;;;;11.84;71.52;102076.31;5001181;28;104269;-55
2022/11/28 15:52:01;;;;;;;37.95;34.97;;;;;;;11.84;71.05;102065.41;5008838;28;103118;-55
2022/11/28 15:54:37;;;;;;;38.28;35.40;;;;;;;11.85;71.37;102069.78;4995479;28;102545;-55
2022/11/28 15:57:05;;;;;;;37.17;34.28;;;;;;;11.83;71.46;102069.16;5006206;28;102355;-56
2022/11/28 15:59:31;;;;;;;38.65;35.92;;;;;;;11.85;71.40;102058.88;5010906;28;104114;-55
2022/11/28 16:02:03;;;;;;;34.72;32.22;;;;;;;11.84;71.49;102062.69;5010783;28;102792;-56
2022/11/28 16:04:31;;;;;;;37.60;34.67;;;;;;;11.86;71.63;102058.59;5005601;28;102876;-55
2022/11/28 16:07:00;;;;;;;38.17;35.45;;;;;;;11.85;71.14;102062.44;5008858;28;102653;-56
2022/11/28 16:09:32;;;;;;;39.53;36.47;;;;;;;11.86;71.53;102055.88;5002396;28;103837;-55
2022/11/28 16:12:01;;;;;;;38.05;35.13;;;;;;;11.83;71.31;102052.78;4996853;28;102866;-55
2022/11/28 16:14:31;;;;;;;37.25;34.42;;;;;;;11.84;71.45;102057.22;5011064;28;103202;-55
2022/11/28 16:16:59;;;;;;;38.55;35.65;;;;;;;11.83;71.44;102058.25;5009286;28;102411;-55
2022/11/28 16:19:28;;;;;;;;;;;;;;;11.83;71.49;102055.53;5002058;28;104174;-55
2022/11/28 19:25:55;;;;;;;16.95;15.48;;;;;;;11.64;71.52;101992.22;5032763;27;103954;-55
2022/11/28 19:28:22;;;;;;;15.52;12.13;;;;;;;11.56;72.51;101996.19;4985400;28;102718;-56
2022/11/28 19:30:53;;;;;;;14.63;10.75;;;;;;;11.46;72.15;101996.81;4965402;28;103974;-56
2022/11/28 19:33:19;;;;;;;11.48;10.35;;;;;;;11.51;72.13;101998.81;4989329;28;102415;-56
2022/11/28 19:35:46;;;;;;;12.05;11.05;;;;;;;11.59;72.26;102000.31;4995653;28;102300;-55
2022/11/28 19:38:15;;;;;;;11.50;10.40;;;;;;;11.62;71.67;101997.94;4991372;28;102134;-55
2022/11/28 19:40:44;;;;;;;11.88;10.77;;;;;;;11.63;71.73;101999.56;4989570;28;103864;-56
2022/11/28 19:43:12;;;;;;;14.45;11.40;;;;;;;11.64;71.79;102001.22;4988436;28;102335;-55
2022/11/28 19:45:39;;;;;;;12.87;11.57;;;;;;;11.66;71.89;101990.91;4982523;28;102393;-56
2022/11/28 19:48:06;;;;;;;12.05;11.25;;;;;;;11.68;71.60;101988.72;4974283;28;102589;-55
2022/11/28 19:50:35;;;;;;;14.25;12.95;;;;;;;11.69;71.89;101987.69;4976455;28;103825;-55
2022/11/28 19:53:04;;;;;;;13.50;12.48;;;;;;;11.71;71.85;101988.25;4986998;28;102697;-55
2022/11/28 19:55:33;;;;;;;14.70;13.68;;;;;;;11.70;71.55;101983.88;4995386;28;102338;-55
2022/11/28 19:58:00;;;;;;;16.90;15.40;;;;;;;11.71;71.56;101985.50;4967321;28;102802;-56
2022/11/28 20:00:28;;;;;;;15.05;14.05;;;;;;;11.68;71.83;101983.28;4974235;28;104631;-56
2022/11/28 20:03:00;;;;;;;16.25;14.95;;;;;;;11.68;71.93;101983.28;4978788;28;102817;-55
2022/11/28 20:05:34;;;;;;;15.55;14.38;;;;;;;11.69;71.75;101984.97;4971379;28;102151;-55
2022/11/28 20:08:01;;;;;;;16.23;15.07;;;;;;;11.68;71.86;101977.00;4974778;28;103132;-56
2022/11/28 20:10:34;;;;;;;16.42;15.32;;;;;;;11.66;72.11;101984.63;4960445;28;103995;-55
2022/11/28 20:13:05;;;;;;;17.20;16.10;;;;;;;11.62;72.07;101973.38;4968226;28;102341;-56
2022/11/28 20:15:35;;;;;;;19.05;17.70;;;;;;;11.60;72.19;101980.97;4963588;28;102614;-55
2022/11/28 20:18:05;;;;;;;17.38;16.17;;;;;;;11.63;72.07;101979.66;4968214;28;102277;-56
2022/11/28 20:20:33;;;;;;;19.25;17.85;;;;;;;11.62;72.50;101975.28;4972411;28;104100;-55
2022/11/28 20:23:09;;;;;;;19.42;18.02;;;;;;;11.60;72.32;101983.69;4971340;28;103119;-55
2022/11/28 20:25:35;;;;;;;19.10;17.90;;;;;;;11.61;72.59;101982.66;4962951;28;102757;-56
2022/11/28 20:28:06;;;;;;;19.85;18.42;;;;;;;11.60;72.10;101975.53;4956933;28;102344;-56
2022/11/28 20:30:36;;;;;;;18.98;17.77;;;;;;;11.58;72.18;101977.69;4948658;28;104632;-56
2022/11/28 20:33:02;;;;;;;19.30;17.92;;;;;;;11.59;72.00;101979.31;4949275;28;104695;-56
2022/11/28 20:35:29;;;;;;;22.35;20.63;;;;;;;11.58;72.59;101983.13;4958856;28;102239;-55
2022/11/28 20:37:57;;;;;;;19.53;18.37;;;;;;;11.57;72.19;101984.19;4953261;28;102646;-55
2022/11/28 20:40:26;;;;;;;21.63;20.20;;;;;;;11.58;72.35;101983.13;4949737;28;103714;-55
2022/11/28 20:42:55;;;;;;;21.15;19.85;;;;;;;11.57;72.13;101981.47;4971561;28;102187;-56
2022/11/28 20:45:25;;;;;;;20.08;18.67;;;;;;;11.57;72.19;101983.38;4953322;28;104618;-55
2022/11/28 20:47:53;;;;;;;21.70;20.33;;;;;;;11.55;72.22;101979.00;4945628;28;102514;-57
2022/11/28 20:50:21;;;;;;;22.10;20.77;;;;;;;11.56;72.25;101982.53;4947559;28;104118;-57
2022/11/28 20:52:50;;;;;;;21.48;19.98;;;;;;;11.57;72.64;101986.91;4953404;28;102411;-57
2022/11/28 20:57:52;;;;;;;19.98;18.55;;;;;;;11.61;72.84;101987.25;5626235;22;102968;-57
2022/11/28 21:00:20;;;;;;;24.85;21.95;;;;;;;11.59;72.57;101987.50;4934482;28;104350;-56
